Mountain City, Georgia
Current Conditions -  °F | °C
As of 12:55 PM on Friday 24 Oct 2014 (Local Time) from KTOC Reporting Station
Clear Clear  
Wind Chill: 64°   Ceiling: Unl
Heat Index: 64°   Visibility: 10mi
Dew Point: 44°   Wind: 0mph
Humidity: 48%   Direction: NA
Pressure: 30.08"   Gusts: NA
Location:  34.92°N, 83.39°W
Report Text: KTOC 241655Z AUTO 00000KT 10SM CLR 18/07 A3008 RMK AO2 T01780065
Loading
Personal Weather Stations






























Interactive Weather Map
Tropical Storm Tracking
New forecast layout! Learn more

10-Day Weather Forecast

Advertisements
Track Severe Weather on mobile